sensor_id;sensor_type;location;lat;lon;timestamp;pressure;altitude;pressure_sealevel;temperature;humidity
71504;BME280;59323;50.874;7.028;2022-08-19T00:01:53;100955.44;;;19.88;69.61
71504;BME280;59323;50.874;7.028;2022-08-19T00:04:22;100960.66;;;19.82;69.60
71504;BME280;59323;50.874;7.028;2022-08-19T00:06:48;100955.56;;;19.81;70.19
71504;BME280;59323;50.874;7.028;2022-08-19T00:09:15;100960.28;;;19.80;70.24
71504;BME280;59323;50.874;7.028;2022-08-19T00:11:42;100941.97;;;19.70;69.96
71504;BME280;59323;50.874;7.028;2022-08-19T00:14:09;100950.53;;;19.76;70.35
71504;BME280;59323;50.874;7.028;2022-08-19T00:16:36;100943.94;;;19.70;70.25
71504;BME280;59323;50.874;7.028;2022-08-19T00:19:03;100945.22;;;19.65;70.25
71504;BME280;59323;50.874;7.028;2022-08-19T00:21:28;100941.38;;;19.59;70.32
71504;BME280;59323;50.874;7.028;2022-08-19T00:23:55;100954.69;;;19.64;70.62
71504;BME280;59323;50.874;7.028;2022-08-19T00:26:24;100956.31;;;19.61;70.73
71504;BME280;59323;50.874;7.028;2022-08-19T00:28:49;100961.47;;;19.59;71.00
71504;BME280;59323;50.874;7.028;2022-08-19T00:31:15;100951.72;;;19.51;70.84
71504;BME280;59323;50.874;7.028;2022-08-19T00:33:41;100948.19;;;19.51;70.71
71504;BME280;59323;50.874;7.028;2022-08-19T00:36:07;100936.84;;;19.45;70.75
71504;BME280;59323;50.874;7.028;2022-08-19T00:38:34;100942.00;;;19.43;71.01
71504;BME280;59323;50.874;7.028;2022-08-19T00:41:00;100940.84;;;19.41;71.10
71504;BME280;59323;50.874;7.028;2022-08-19T00:43:27;100948.69;;;19.42;71.00
71504;BME280;59323;50.874;7.028;2022-08-19T00:45:53;100952.31;;;19.39;71.12
71504;BME280;59323;50.874;7.028;2022-08-19T00:48:19;100948.47;;;19.33;71.12
71504;BME280;59323;50.874;7.028;2022-08-19T00:50:47;100946.53;;;19.30;71.10
71504;BME280;59323;50.874;7.028;2022-08-19T00:53:15;100956.00;;;19.29;71.33
71504;BME280;59323;50.874;7.028;2022-08-19T00:55:45;100957.63;;;19.26;71.51
71504;BME280;59323;50.874;7.028;2022-08-19T00:58:15;100947.50;;;19.20;71.35
71504;BME280;59323;50.874;7.028;2022-08-19T01:00:42;100962.84;;;19.21;71.72
71504;BME280;59323;50.874;7.028;2022-08-19T01:03:11;100959.34;;;19.17;71.58
71504;BME280;59323;50.874;7.028;2022-08-19T01:05:37;100960.19;;;19.14;71.64
71504;BME280;59323;50.874;7.028;2022-08-19T01:08:05;100951.56;;;19.12;71.67
71504;BME280;59323;50.874;7.028;2022-08-19T01:10:37;100957.84;;;19.12;71.42
71504;BME280;59323;50.874;7.028;2022-08-19T01:13:05;100951.69;;;19.05;71.67
71504;BME280;59323;50.874;7.028;2022-08-19T01:15:33;100949.75;;;19.02;71.79
71504;BME280;59323;50.874;7.028;2022-08-19T01:18:02;100958.81;;;19.02;72.24
71504;BME280;59323;50.874;7.028;2022-08-19T01:20:29;100944.00;;;18.92;72.35
71504;BME280;59323;50.874;7.028;2022-08-19T01:22:57;100951.78;;;18.97;72.25
71504;BME280;59323;50.874;7.028;2022-08-19T01:25:38;100948.25;;;18.97;71.71
71504;BME280;59323;50.874;7.028;2022-08-19T01:28:04;100945.19;;;18.91;72.54
71504;BME280;59323;50.874;7.028;2022-08-19T01:30:33;100940.53;;;18.85;72.31
71504;BME280;59323;50.874;7.028;2022-08-19T01:32:59;100945.66;;;18.86;72.08
71504;BME280;59323;50.874;7.028;2022-08-19T01:35:26;100936.69;;;18.79;72.61
71504;BME280;59323;50.874;7.028;2022-08-19T01:37:57;100944.53;;;18.80;72.62
71504;BME280;59323;50.874;7.028;2022-08-19T01:40:26;100944.13;;;18.82;72.82
71504;BME280;59323;50.874;7.028;2022-08-19T01:42:53;100941.00;;;18.80;72.54
71504;BME280;59323;50.874;7.028;2022-08-19T01:45:20;100930.88;;;18.73;72.66
71504;BME280;59323;50.874;7.028;2022-08-19T01:47:46;100937.88;;;18.78;72.59
71504;BME280;59323;50.874;7.028;2022-08-19T01:50:12;100934.78;;;18.76;73.04
71504;BME280;59323;50.874;7.028;2022-08-19T01:52:40;100927.34;;;18.73;73.32
71504;BME280;59323;50.874;7.028;2022-08-19T01:55:08;100928.59;;;18.68;73.25
71504;BME280;59323;50.874;7.028;2022-08-19T01:57:34;100924.69;;;18.65;73.55
71504;BME280;59323;50.874;7.028;2022-08-19T02:00:00;100936.06;;;18.67;73.37
71504;BME280;59323;50.874;7.028;2022-08-19T02:02:28;100925.97;;;18.57;73.67
71504;BME280;59323;50.874;7.028;2022-08-19T02:04:53;100956.94;;;18.65;73.84
71504;BME280;59323;50.874;7.028;2022-08-19T02:07:20;100956.56;;;18.63;73.83
71504;BME280;59323;50.874;7.028;2022-08-19T02:09:46;100947.59;;;18.55;73.70
71504;BME280;59323;50.874;7.028;2022-08-19T02:12:14;100947.19;;;18.57;74.31
71504;BME280;59323;50.874;7.028;2022-08-19T02:14:39;100946.88;;;18.51;74.37
71504;BME280;59323;50.874;7.028;2022-08-19T02:17:05;100940.63;;;18.47;74.33
71504;BME280;59323;50.874;7.028;2022-08-19T02:19:30;100946.50;;;18.49;75.22
71504;BME280;59323;50.874;7.028;2022-08-19T02:21:57;100947.72;;;18.48;74.75
71504;BME280;59323;50.874;7.028;2022-08-19T02:24:23;100945.31;;;18.50;74.83
71504;BME280;59323;50.874;7.028;2022-08-19T02:26:49;100946.50;;;18.49;75.04
71504;BME280;59323;50.874;7.028;2022-08-19T02:29:14;100936.75;;;18.45;75.47
71504;BME280;59323;50.874;7.028;2022-08-19T02:31:39;100951.59;;;18.51;75.04
71504;BME280;59323;50.874;7.028;2022-08-19T02:34:05;100948.44;;;18.52;75.01
71504;BME280;59323;50.874;7.028;2022-08-19T02:36:31;100939.03;;;18.50;74.92
71504;BME280;59323;50.874;7.028;2022-08-19T02:38:56;100934.00;;;18.45;75.16
71504;BME280;59323;50.874;7.028;2022-08-19T02:41:27;100946.56;;;18.46;75.67
71504;BME280;59323;50.874;7.028;2022-08-19T02:43:57;100947.38;;;18.43;75.49
71504;BME280;59323;50.874;7.028;2022-08-19T02:46:29;100954.41;;;18.47;75.62
71504;BME280;59323;50.874;7.028;2022-08-19T02:48:57;100950.50;;;18.45;75.36
71504;BME280;59323;50.874;7.028;2022-08-19T02:51:34;100960.69;;;18.48;75.23
71504;BME280;59323;50.874;7.028;2022-08-19T02:53:59;100952.88;;;18.43;75.36
71504;BME280;59323;50.874;7.028;2022-08-19T02:56:26;100959.16;;;18.43;75.48
71504;BME280;59323;50.874;7.028;2022-08-19T02:58:53;100953.72;;;18.40;75.43
71504;BME280;59323;50.874;7.028;2022-08-19T03:01:24;100941.97;;;18.35;75.74
71504;BME280;59323;50.874;7.028;2022-08-19T03:03:50;100946.28;;;18.36;75.50
71504;BME280;59323;50.874;7.028;2022-08-19T03:06:16;100942.06;;;18.28;75.73
71504;BME280;59323;50.874;7.028;2022-08-19T03:08:45;100945.22;;;18.27;75.83
71504;BME280;59323;50.874;7.028;2022-08-19T03:11:22;100947.19;;;18.26;76.05
71504;BME280;59323;50.874;7.028;2022-08-19T03:13:48;100954.66;;;18.26;75.77
71504;BME280;59323;50.874;7.028;2022-08-19T03:16:21;100956.28;;;18.23;75.89
71504;BME280;59323;50.874;7.028;2022-08-19T03:18:47;100959.03;;;18.23;76.17
71504;BME280;59323;50.874;7.028;2022-08-19T03:21:24;100956.69;;;18.18;75.80
71504;BME280;59323;50.874;7.028;2022-08-19T03:23:54;100964.53;;;18.20;76.22
71504;BME280;59323;50.874;7.028;2022-08-19T03:26:19;100952.84;;;18.12;76.15
71504;BME280;59323;50.874;7.028;2022-08-19T03:28:45;100968.47;;;18.19;76.24
71504;BME280;59323;50.874;7.028;2022-08-19T03:31:18;100966.13;;;18.17;76.24
71504;BME280;59323;50.874;7.028;2022-08-19T03:33:44;100964.94;;;18.18;76.09
71504;BME280;59323;50.874;7.028;2022-08-19T03:36:14;100961.41;;;18.18;76.07
71504;BME280;59323;50.874;7.028;2022-08-19T03:38:43;100965.41;;;18.13;76.19
71504;BME280;59323;50.874;7.028;2022-08-19T03:41:12;100968.94;;;18.14;76.05
71504;BME280;59323;50.874;7.028;2022-08-19T03:43:40;100977.97;;;18.14;76.38
71504;BME280;59323;50.874;7.028;2022-08-19T03:46:08;100975.25;;;18.11;76.73
71504;BME280;59323;50.874;7.028;2022-08-19T03:48:35;100975.31;;;18.03;76.95
71504;BME280;59323;50.874;7.028;2022-08-19T03:51:02;100983.53;;;18.07;76.77
71504;BME280;59323;50.874;7.028;2022-08-19T03:53:28;100977.34;;;17.99;76.84
71504;BME280;59323;50.874;7.028;2022-08-19T03:55:55;100977.66;;;18.05;76.99
71504;BME280;59323;50.874;7.028;2022-08-19T03:58:22;100978.50;;;18.02;76.93
71504;BME280;59323;50.874;7.028;2022-08-19T04:00:47;100980.41;;;18.05;76.83
71504;BME280;59323;50.874;7.028;2022-08-19T04:03:13;100974.19;;;18.01;76.82
71504;BME280;59323;50.874;7.028;2022-08-19T04:05:38;100971.44;;;18.01;77.00
71504;BME280;59323;50.874;7.028;2022-08-19T04:08:04;100973.44;;;17.97;77.04
71504;BME280;59323;50.874;7.028;2022-08-19T04:10:35;100978.16;;;17.96;76.89
71504;BME280;59323;50.874;7.028;2022-08-19T04:13:00;100976.97;;;17.97;76.87
71504;BME280;59323;50.874;7.028;2022-08-19T04:15:26;100984.50;;;17.90;77.03
71504;BME280;59323;50.874;7.028;2022-08-19T04:17:52;100990.34;;;17.95;77.12
71504;BME280;59323;50.874;7.028;2022-08-19T04:20:18;100998.63;;;17.92;76.78
71504;BME280;59323;50.874;7.028;2022-08-19T04:22:43;101002.56;;;17.91;77.09
71504;BME280;59323;50.874;7.028;2022-08-19T04:25:09;100997.91;;;17.84;77.58
71504;BME280;59323;50.874;7.028;2022-08-19T04:27:34;100995.25;;;17.77;77.75
71504;BME280;59323;50.874;7.028;2022-08-19T04:30:00;101000.69;;;17.81;77.34
71504;BME280;59323;50.874;7.028;2022-08-19T04:32:25;100987.78;;;17.78;77.38
71504;BME280;59323;50.874;7.028;2022-08-19T04:34:51;100994.81;;;17.79;77.22
71504;BME280;59323;50.874;7.028;2022-08-19T04:37:16;101000.28;;;17.82;77.33
71504;BME280;59323;50.874;7.028;2022-08-19T04:39:42;100995.25;;;17.77;77.49
71504;BME280;59323;50.874;7.028;2022-08-19T04:42:25;100998.41;;;17.76;77.40
71504;BME280;59323;50.874;7.028;2022-08-19T04:45:12;101003.47;;;17.77;77.43
71504;BME280;59323;50.874;7.028;2022-08-19T04:47:40;100995.66;;;17.76;77.67
71504;BME280;59323;50.874;7.028;2022-08-19T04:50:07;101001.19;;;17.72;77.68
71504;BME280;59323;50.874;7.028;2022-08-19T04:52:33;100994.91;;;17.71;77.94
71504;BME280;59323;50.874;7.028;2022-08-19T04:54:59;100999.22;;;17.72;77.37
71504;BME280;59323;50.874;7.028;2022-08-19T04:57:25;101014.47;;;17.77;77.53
71504;BME280;59323;50.874;7.028;2022-08-19T04:59:55;101011.75;;;17.73;77.63
71504;BME280;59323;50.874;7.028;2022-08-19T05:02:21;101009.75;;;17.78;77.45
71504;BME280;59323;50.874;7.028;2022-08-19T05:04:50;101014.47;;;17.77;77.65
71504;BME280;59323;50.874;7.028;2022-08-19T05:07:15;101009.41;;;17.72;77.71
71504;BME280;59323;50.874;7.028;2022-08-19T05:09:41;101015.66;;;17.76;77.57
71504;BME280;59323;50.874;7.028;2022-08-19T05:12:06;101028.19;;;17.81;77.66
71504;BME280;59323;50.874;7.028;2022-08-19T05:14:32;101030.94;;;17.81;77.45
71504;BME280;59323;50.874;7.028;2022-08-19T05:16:57;101025.06;;;17.79;77.61
71504;BME280;59323;50.874;7.028;2022-08-19T05:19:22;101035.63;;;17.84;77.84
71504;BME280;59323;50.874;7.028;2022-08-19T05:22:06;101029.00;;;17.78;77.41
71504;BME280;59323;50.874;7.028;2022-08-19T05:24:50;101031.66;;;17.88;77.68
71504;BME280;59323;50.874;7.028;2022-08-19T05:27:16;101040.28;;;17.90;77.85
71504;BME280;59323;50.874;7.028;2022-08-19T05:29:41;101035.59;;;17.87;77.48
71504;BME280;59323;50.874;7.028;2022-08-19T05:32:07;101046.16;;;17.92;77.73
71504;BME280;59323;50.874;7.028;2022-08-19T05:34:34;101044.56;;;17.95;77.59
71504;BME280;59323;50.874;7.028;2022-08-19T05:37:02;101045.72;;;17.97;77.60
71504;BME280;59323;50.874;7.028;2022-08-19T05:39:30;101046.13;;;17.96;78.00
71504;BME280;59323;50.874;7.028;2022-08-19T05:42:06;101037.50;;;17.94;77.96
71504;BME280;59323;50.874;7.028;2022-08-19T05:44:34;101049.13;;;18.09;79.61
71504;BME280;59323;50.874;7.028;2022-08-19T05:47:01;101051.28;;;18.31;80.20
71504;BME280;59323;50.874;7.028;2022-08-19T05:49:28;101041.72;;;18.43;80.30
71504;BME280;59323;50.874;7.028;2022-08-19T05:51:54;101038.97;;;18.43;80.48
71504;BME280;59323;50.874;7.028;2022-08-19T05:54:24;101045.91;;;18.55;80.88
71504;BME280;59323;50.874;7.028;2022-08-19T05:56:50;101045.09;;;18.58;80.80
71504;BME280;59323;50.874;7.028;2022-08-19T05:59:17;101035.66;;;18.59;80.82
71504;BME280;59323;50.874;7.028;2022-08-19T06:01:45;101035.28;;;18.57;80.57
71504;BME280;59323;50.874;7.028;2022-08-19T06:04:12;101033.97;;;18.68;80.46
71504;BME280;59323;50.874;7.028;2022-08-19T06:06:40;101026.91;;;18.67;80.28
71504;BME280;59323;50.874;7.028;2022-08-19T06:09:07;101033.84;;;18.79;79.97
71504;BME280;59323;50.874;7.028;2022-08-19T06:11:50;101024.03;;;18.78;79.83
71504;BME280;59323;50.874;7.028;2022-08-19T06:14:22;101024.81;;;18.79;79.95
71504;BME280;59323;50.874;7.028;2022-08-19T06:16:48;101032.28;;;18.78;80.02
71504;BME280;59323;50.874;7.028;2022-08-19T06:19:15;101029.16;;;18.76;79.80
71504;BME280;59323;50.874;7.028;2022-08-19T06:21:44;101030.25;;;18.86;79.54
71504;BME280;59323;50.874;7.028;2022-08-19T06:24:13;101034.00;;;18.99;79.20
71504;BME280;59323;50.874;7.028;2022-08-19T06:26:41;101027.72;;;18.98;79.03
71504;BME280;59323;50.874;7.028;2022-08-19T06:29:09;101046.91;;;19.06;79.09
71504;BME280;59323;50.874;7.028;2022-08-19T06:31:35;101041.34;;;19.09;78.48
71504;BME280;59323;50.874;7.028;2022-08-19T06:34:04;101046.69;;;19.20;78.51
71504;BME280;59323;50.874;7.028;2022-08-19T06:36:33;101041.44;;;19.29;77.98
71504;BME280;59323;50.874;7.028;2022-08-19T06:39:11;101041.69;;;19.38;77.80
71504;BME280;59323;50.874;7.028;2022-08-19T06:41:39;101052.59;;;19.45;77.02
71504;BME280;59323;50.874;7.028;2022-08-19T06:44:06;101054.94;;;19.47;77.35
71504;BME280;59323;50.874;7.028;2022-08-19T06:46:32;101042.69;;;19.51;77.12
71504;BME280;59323;50.874;7.028;2022-08-19T06:48:57;101052.75;;;19.65;76.41
71504;BME280;59323;50.874;7.028;2022-08-19T06:51:23;101055.69;;;19.78;76.18
71504;BME280;59323;50.874;7.028;2022-08-19T06:53:51;101050.28;;;19.94;75.99
71504;BME280;59323;50.874;7.028;2022-08-19T06:56:19;101047.69;;;20.07;75.62
71504;BME280;59323;50.874;7.028;2022-08-19T06:58:45;101046.63;;;20.24;74.59
71504;BME280;59323;50.874;7.028;2022-08-19T07:01:12;101061.66;;;20.43;73.43
71504;BME280;59323;50.874;7.028;2022-08-19T07:03:38;101062.94;;;20.58;73.33
71504;BME280;59323;50.874;7.028;2022-08-19T07:06:11;101056.56;;;20.61;73.05
71504;BME280;59323;50.874;7.028;2022-08-19T07:08:37;101065.69;;;20.78;72.72
71504;BME280;59323;50.874;7.028;2022-08-19T07:11:11;101074.41;;;20.96;72.49
71504;BME280;59323;50.874;7.028;2022-08-19T07:13:38;101055.97;;;21.09;72.09
71504;BME280;59323;50.874;7.028;2022-08-19T07:16:10;101065.97;;;21.39;70.99
71504;BME280;59323;50.874;7.028;2022-08-19T07:18:36;101072.56;;;21.62;70.28
71504;BME280;59323;50.874;7.028;2022-08-19T07:21:08;101073.69;;;21.80;69.42
71504;BME280;59323;50.874;7.028;2022-08-19T07:23:34;101078.44;;;21.96;68.52
71504;BME280;59323;50.874;7.028;2022-08-19T07:26:08;101057.44;;;22.15;67.23
71504;BME280;59323;50.874;7.028;2022-08-19T07:28:34;101073.97;;;22.19;67.21
71504;BME280;59323;50.874;7.028;2022-08-19T07:31:00;101072.66;;;22.23;66.94
71504;BME280;59323;50.874;7.028;2022-08-19T07:33:27;101080.31;;;22.32;67.73
71504;BME280;59323;50.874;7.028;2022-08-19T07:35:52;101076.28;;;22.49;66.94
71504;BME280;59323;50.874;7.028;2022-08-19T07:38:19;101091.28;;;22.64;65.99
71504;BME280;59323;50.874;7.028;2022-08-19T07:40:45;101090.75;;;22.69;64.97
71504;BME280;59323;50.874;7.028;2022-08-19T07:43:11;101089.19;;;22.68;65.38
71504;BME280;59323;50.874;7.028;2022-08-19T07:45:36;101086.22;;;22.75;65.11
71504;BME280;59323;50.874;7.028;2022-08-19T07:48:03;101090.84;;;22.82;64.09
71504;BME280;59323;50.874;7.028;2022-08-19T07:50:29;101089.09;;;22.88;64.03
71504;BME280;59323;50.874;7.028;2022-08-19T07:52:54;101098.84;;;22.93;64.31
71504;BME280;59323;50.874;7.028;2022-08-19T07:55:25;101101.22;;;22.78;63.44
71504;BME280;59323;50.874;7.028;2022-08-19T07:57:50;101101.84;;;22.69;63.78
71504;BME280;59323;50.874;7.028;2022-08-19T08:00:17;101113.03;;;22.66;64.10
71504;BME280;59323;50.874;7.028;2022-08-19T08:02:43;101106.69;;;22.65;64.52
71504;BME280;59323;50.874;7.028;2022-08-19T08:05:10;101114.56;;;22.67;64.10
71504;BME280;59323;50.874;7.028;2022-08-19T08:07:54;101104.50;;;22.73;63.76
71504;BME280;59323;50.874;7.028;2022-08-19T08:10:38;101121.03;;;22.93;62.86
71504;BME280;59323;50.874;7.028;2022-08-19T08:13:03;101119.38;;;22.95;62.73
71504;BME280;59323;50.874;7.028;2022-08-19T08:15:31;101113.16;;;23.04;62.25
71504;BME280;59323;50.874;7.028;2022-08-19T08:17:56;101123.06;;;23.18;61.07
71504;BME280;59323;50.874;7.028;2022-08-19T08:20:23;101120.75;;;23.29;62.28
71504;BME280;59323;50.874;7.028;2022-08-19T08:22:48;101114.97;;;23.36;61.53
71504;BME280;59323;50.874;7.028;2022-08-19T08:25:34;101124.47;;;23.64;60.74
71504;BME280;59323;50.874;7.028;2022-08-19T08:28:01;101128.47;;;23.63;60.28
71504;BME280;59323;50.874;7.028;2022-08-19T08:30:28;101141.34;;;23.57;60.79
71504;BME280;59323;50.874;7.028;2022-08-19T08:32:54;101127.78;;;23.59;61.02
71504;BME280;59323;50.874;7.028;2022-08-19T08:35:22;101131.75;;;23.45;61.32
71504;BME280;59323;50.874;7.028;2022-08-19T08:37:49;101128.00;;;23.52;60.75
71504;BME280;59323;50.874;7.028;2022-08-19T08:40:45;101129.91;;;23.55;61.15
71504;BME280;59323;50.874;7.028;2022-08-19T08:43:24;101119.44;;;23.84;60.92
71504;BME280;59323;50.874;7.028;2022-08-19T08:46:05;101126.41;;;24.27;59.98
71504;BME280;59323;50.874;7.028;2022-08-19T08:49:36;101109.63;;;24.52;57.65
71504;BME280;59323;50.874;7.028;2022-08-19T08:51:41;101116.94;;;24.59;58.24
71504;BME280;59323;50.874;7.028;2022-08-19T08:54:10;101128.00;;;24.72;56.60
71504;BME280;59323;50.874;7.028;2022-08-19T08:56:38;101126.88;;;24.69;57.35
71504;BME280;59323;50.874;7.028;2022-08-19T08:59:28;101137.47;;;24.61;57.71
71504;BME280;59323;50.874;7.028;2022-08-19T09:01:52;101131.94;;;24.61;57.25
71504;BME280;59323;50.874;7.028;2022-08-19T09:04:17;101129.81;;;24.87;56.92
71504;BME280;59323;50.874;7.028;2022-08-19T09:09:22;101118.06;;;24.83;57.39
71504;BME280;59323;50.874;7.028;2022-08-19T09:11:52;101133.56;;;24.93;55.87
71504;BME280;59323;50.874;7.028;2022-08-19T09:14:50;101124.31;;;24.96;56.58
71504;BME280;59323;50.874;7.028;2022-08-19T09:17:20;101132.41;;;25.04;56.90
71504;BME280;59323;50.874;7.028;2022-08-19T09:22:26;101129.50;;;25.07;56.14
71504;BME280;59323;50.874;7.028;2022-08-19T09:24:55;101134.59;;;25.09;55.89
71504;BME280;59323;50.874;7.028;2022-08-19T09:27:21;101126.78;;;25.16;55.42
71504;BME280;59323;50.874;7.028;2022-08-19T09:29:49;101111.28;;;25.37;55.02
71504;BME280;59323;50.874;7.028;2022-08-19T09:32:16;101116.25;;;25.42;54.39
71504;BME280;59323;50.874;7.028;2022-08-19T09:34:43;101115.94;;;25.80;55.21
71504;BME280;59323;50.874;7.028;2022-08-19T09:37:09;101115.25;;;26.16;52.50
71504;BME280;59323;50.874;7.028;2022-08-19T09:39:34;101111.38;;;26.32;53.13
71504;BME280;59323;50.874;7.028;2022-08-19T09:42:00;101108.28;;;26.76;52.38
71504;BME280;59323;50.874;7.028;2022-08-19T09:44:25;101116.66;;;26.76;51.70
71504;BME280;59323;50.874;7.028;2022-08-19T09:46:51;101114.97;;;26.69;52.00
71504;BME280;59323;50.874;7.028;2022-08-19T09:49:18;101113.72;;;26.70;50.23
71504;BME280;59323;50.874;7.028;2022-08-19T09:51:45;101097.56;;;27.02;51.02
71504;BME280;59323;50.874;7.028;2022-08-19T09:54:14;101095.81;;;27.13;48.95
71504;BME280;59323;50.874;7.028;2022-08-19T09:56:39;101101.59;;;26.92;49.04
71504;BME280;59323;50.874;7.028;2022-08-19T09:59:05;101091.53;;;26.85;49.69
71504;BME280;59323;50.874;7.028;2022-08-19T10:01:31;101104.22;;;27.04;48.00
71504;BME280;59323;50.874;7.028;2022-08-19T10:03:58;101106.25;;;26.85;48.06
71504;BME280;59323;50.874;7.028;2022-08-19T10:06:27;101105.38;;;26.70;48.87
71504;BME280;59323;50.874;7.028;2022-08-19T10:08:55;101100.38;;;26.83;48.67
71504;BME280;59323;50.874;7.028;2022-08-19T10:11:20;101082.28;;;26.70;47.84
71504;BME280;59323;50.874;7.028;2022-08-19T10:13:46;101091.53;;;26.85;47.25
71504;BME280;59323;50.874;7.028;2022-08-19T10:16:20;101098.19;;;26.97;46.23
71504;BME280;59323;50.874;7.028;2022-08-19T10:18:48;101086.03;;;27.18;46.54
71504;BME280;59323;50.874;7.028;2022-08-19T10:23:42;101102.94;;;27.57;45.50
71504;BME280;59323;50.874;7.028;2022-08-19T10:26:11;101099.97;;;27.69;44.97
71504;BME280;59323;50.874;7.028;2022-08-19T10:28:37;101099.09;;;27.54;43.34
71504;BME280;59323;50.874;7.028;2022-08-19T10:31:08;101098.53;;;27.41;44.45
71504;BME280;59323;50.874;7.028;2022-08-19T10:33:35;101095.16;;;27.28;44.21
71504;BME280;59323;50.874;7.028;2022-08-19T10:36:05;101097.56;;;26.93;44.97
71504;BME280;59323;50.874;7.028;2022-08-19T10:38:31;101093.41;;;26.79;45.71
71504;BME280;59323;50.874;7.028;2022-08-19T10:40:57;101086.63;;;26.52;46.60
71504;BME280;59323;50.874;7.028;2022-08-19T10:43:23;101088.47;;;26.65;46.60
71504;BME280;59323;50.874;7.028;2022-08-19T10:45:54;101076.88;;;26.66;46.49
71504;BME280;59323;50.874;7.028;2022-08-19T10:48:24;101090.94;;;26.63;46.28
71504;BME280;59323;50.874;7.028;2022-08-19T10:50:49;101083.84;;;26.52;47.35
71504;BME280;59323;50.874;7.028;2022-08-19T10:53:33;101090.34;;;26.49;47.18
71504;BME280;59323;50.874;7.028;2022-08-19T10:55:59;101072.06;;;26.30;47.34
71504;BME280;59323;50.874;7.028;2022-08-19T10:58:43;101078.53;;;26.64;45.94
71504;BME280;59323;50.874;7.028;2022-08-19T11:01:09;101072.97;;;26.82;45.71
71504;BME280;59323;50.874;7.028;2022-08-19T11:03:35;101058.38;;;26.87;45.34
71504;BME280;59323;50.874;7.028;2022-08-19T11:06:06;101074.63;;;27.07;45.75
71504;BME280;59323;50.874;7.028;2022-08-19T11:08:33;101069.19;;;26.94;45.58
71504;BME280;59323;50.874;7.028;2022-08-19T11:11:01;101062.75;;;26.70;45.51
71504;BME280;59323;50.874;7.028;2022-08-19T11:13:29;101062.13;;;26.66;46.33
71504;BME280;59323;50.874;7.028;2022-08-19T11:15:59;101051.91;;;26.72;45.64
71504;BME280;59323;50.874;7.028;2022-08-19T11:18:25;101052.47;;;27.03;45.40
71504;BME280;59323;50.874;7.028;2022-08-19T11:20:51;101056.19;;;27.00;45.30
71504;BME280;59323;50.874;7.028;2022-08-19T11:23:17;101049.53;;;26.89;45.24
71504;BME280;59323;50.874;7.028;2022-08-19T11:25:42;101058.13;;;26.67;45.27
71504;BME280;59323;50.874;7.028;2022-08-19T11:28:07;101061.06;;;26.54;46.17
71504;BME280;59323;50.874;7.028;2022-08-19T11:30:33;101048.19;;;26.57;46.49
71504;BME280;59323;50.874;7.028;2022-08-19T11:32:59;101057.00;;;26.64;46.20
71504;BME280;59323;50.874;7.028;2022-08-19T11:35:26;101046.03;;;26.51;46.99
71504;BME280;59323;50.874;7.028;2022-08-19T11:37:51;101053.47;;;26.54;46.87
71504;BME280;59323;50.874;7.028;2022-08-19T11:40:17;101053.78;;;26.47;46.68
71504;BME280;59323;50.874;7.028;2022-08-19T11:42:42;101059.69;;;26.49;46.04
71504;BME280;59323;50.874;7.028;2022-08-19T11:45:25;101055.31;;;26.76;45.77
71504;BME280;59323;50.874;7.028;2022-08-19T11:47:50;101050.22;;;26.74;44.62
71504;BME280;59323;50.874;7.028;2022-08-19T11:50:16;101047.41;;;26.74;44.00
71504;BME280;59323;50.874;7.028;2022-08-19T11:52:42;101046.66;;;26.74;44.13
71504;BME280;59323;50.874;7.028;2022-08-19T11:55:09;101044.19;;;26.67;44.44
71504;BME280;59323;50.874;7.028;2022-08-19T11:57:35;101046.19;;;26.75;43.92
71504;BME280;59323;50.874;7.028;2022-08-19T12:00:00;101043.81;;;26.83;44.75
71504;BME280;59323;50.874;7.028;2022-08-19T12:02:26;101040.47;;;26.70;43.90
71504;BME280;59323;50.874;7.028;2022-08-19T12:04:52;101040.91;;;26.59;44.58
71504;BME280;59323;50.874;7.028;2022-08-19T12:07:17;101048.50;;;26.59;44.84
71504;BME280;59323;50.874;7.028;2022-08-19T12:09:42;101040.75;;;26.72;44.56
71504;BME280;59323;50.874;7.028;2022-08-19T12:12:09;101052.16;;;26.92;44.67
71504;BME280;59323;50.874;7.028;2022-08-19T12:14:35;101053.72;;;27.02;43.79
71504;BME280;59323;50.874;7.028;2022-08-19T12:17:00;101045.19;;;26.97;44.27
71504;BME280;59323;50.874;7.028;2022-08-19T12:19:27;101045.19;;;26.97;43.84
71504;BME280;59323;50.874;7.028;2022-08-19T12:21:58;101042.25;;;26.91;43.73
71504;BME280;59323;50.874;7.028;2022-08-19T12:24:25;101046.53;;;27.10;43.60
71504;BME280;59323;50.874;7.028;2022-08-19T12:26:50;101037.81;;;27.17;43.16
71504;BME280;59323;50.874;7.028;2022-08-19T12:29:16;101038.13;;;27.20;42.35
71504;BME280;59323;50.874;7.028;2022-08-19T12:31:41;101038.91;;;27.20;42.20
71504;BME280;59323;50.874;7.028;2022-08-19T12:34:07;101038.31;;;27.16;41.52
71504;BME280;59323;50.874;7.028;2022-08-19T12:36:33;101041.56;;;27.14;42.36
71504;BME280;59323;50.874;7.028;2022-08-19T12:38:59;101037.19;;;27.23;41.89
71504;BME280;59323;50.874;7.028;2022-08-19T12:41:25;101042.88;;;27.37;41.84
71504;BME280;59323;50.874;7.028;2022-08-19T12:43:51;101028.03;;;27.31;42.42
71504;BME280;59323;50.874;7.028;2022-08-19T12:46:18;101020.59;;;27.52;42.27
71504;BME280;59323;50.874;7.028;2022-08-19T12:48:44;101018.97;;;27.69;39.45
71504;BME280;59323;50.874;7.028;2022-08-19T12:51:12;101028.06;;;27.79;39.05
71504;BME280;59323;50.874;7.028;2022-08-19T12:53:39;101027.94;;;27.97;39.20
71504;BME280;59323;50.874;7.028;2022-08-19T12:56:06;101025.75;;;28.16;39.10
71504;BME280;59323;50.874;7.028;2022-08-19T12:58:32;101019.94;;;28.29;38.43
71504;BME280;59323;50.874;7.028;2022-08-19T13:01:05;101014.09;;;28.18;38.13
71504;BME280;59323;50.874;7.028;2022-08-19T13:03:30;100999.16;;;28.06;38.57